aviador You're here:

KPSF Decoded Metar

PITTSFIELD in MA, USA
Report Time2018-04-26 13:12:00
UTC Time2018-04-26 13:18:56
Flight Rules mvfr MVFR
Wind300° at 07 Gusting to 17 kt
W.Decomp.*RWY 32: 7.0 kt HW 0.6 kt LCW
RWY 26: 4.0 kt HW 5.7 kt RCW
W.Rank300° ranks 2
Current wind is below 300° avg. (9.4)
Visibility9999 m
Phenomena:N/A
Clouds:Scattered 009 Hf
Broken 014 Hf
Overcast 045 Hf
Expected CloudBase > 1,200 ft AGL from Temp-Dew spread
Ceiling1,400 ft
Temp09°C (ISA -4)
Dew Point06°C (82% RH)
AAT5.6°C
QNH1004 hPa
Density Alt1,161 ft
Elevation1,165 ft
Report Wrong Elevation
Raw Report
KPSF 261312Z AUTO 30007G17KT 10SM SCT009 BKN014 OVC045 09/06 A2964
RMK AO2 T00940061=

Extra information for KPSF:More info

Metar Taf Metar & Taf Last 4 Metars F.Rules Stats Wind Profile Meteogram Temp Stats Airport Information Weather charts Add Link Nearby VenuesMetar ALERT Operation Metar Decoded Social comments

AIRNAV info for KPSF